mdwo weather

Walterio Airport
Monte Cristi, Monte Cristi Province, Dominican Republic

Public forecast

Using degrees Celsius for public forecast. Weather courtesy of forecast.io.

METAR (pilot weather report)

Closest report is Cap Haitien International Airport, 32.3 nm (59.8 km) W. Retrieved 2019/03/25 13:00 UTC (42 minutes ago):

MTCH 251300Z 18003KT 9999 FEW028 25/19 Q1016 A3003

TAF (pilot weather forecast)

Closest forecast is Cap Haitien International Airport, 32.3 nm (59.8 km) W. Retrieved 2019/03/25 12:46 UTC (56 minutes ago):

TAF MTCH 251136Z 2512/2612 VRB02KT 9000 SCT024 BECMG 2516/2520 03010KT PROB30 TEMPO 2600/2604 4500 SHRA SCT022CB BKN070 BECMG 2608/2612 VRB02KT 9000 FEW016